Time;durP1;ratioP1;P1;durP2;ratioP2;P2;SDS_P1;SDS_P2;PMS_P1;PMS_P2;Temp;Humidity;BMP_temperature;BMP_pressure;BME280_temperature;BME280_humidity;BME280_pressure;Samples;Min_cycle;Max_cycle;Signal;HPM_P1;HPM_P2
2022/03/30 00:01:04;;;;;;;29.77;17.17;;;13.60;72.40;;;;;;20434086;29;20207;-71
2022/03/30 00:11:06;;;;;;;25.10;16.97;;;13.60;73.20;;;;;;20433726;29;20267;-72
2022/03/30 00:21:08;;;;;;;22.13;16.47;;;13.30;72.40;;;;;;20430113;29;20223;-71
2022/03/30 00:31:11;;;;;;;23.67;17.10;;;13.30;73.00;;;;;;20419741;29;20248;-72
2022/03/30 00:41:13;;;;;;;24.70;17.07;;;13.20;72.60;;;;;;20434826;29;20222;-72
2022/03/30 00:51:15;;;;;;;24.73;17.00;;;13.20;73.00;;;;;;20430456;29;20605;-72
2022/03/30 01:01:18;;;;;;;25.47;17.63;;;13.20;73.70;;;;;;20430146;29;20582;-71
2022/03/30 01:11:22;;;;;;;26.37;18.00;;;13.20;74.10;;;;;;20429293;29;20258;-72
2022/03/30 01:21:24;;;;;;;23.57;17.13;;;13.20;74.10;;;;;;20428405;29;20331;-72
2022/03/30 01:41:46;;;;;;;24.27;15.63;;;13.10;74.40;;;;;;20413054;29;20273;-72
2022/03/30 01:51:49;;;;;;;12.67;8.70;;;13.00;74.40;;;;;;20427036;29;20259;-71
2022/03/30 02:01:52;;;;;;;13.80;9.13;;;13.00;72.00;;;;;;20427593;29;20214;-71
2022/03/30 02:11:54;;;;;;;21.23;13.40;;;12.80;65.90;;;;;;20427267;29;20238;-71
2022/03/30 02:21:56;;;;;;;23.77;15.53;;;12.80;67.30;;;;;;20424094;29;20208;-71
2022/03/30 02:31:59;;;;;;;24.63;15.57;;;12.80;70.30;;;;;;20423483;29;20303;-71
2022/03/30 02:42:02;;;;;;;21.13;13.37;;;12.80;71.10;;;;;;20425588;29;20207;-72
2022/03/30 02:52:04;;;;;;;20.40;12.83;;;12.90;71.20;;;;;;20433840;29;20239;-71
2022/03/30 03:02:06;;;;;;;20.17;12.90;;;12.70;71.00;;;;;;20438623;29;20218;-70
2022/03/30 03:12:09;;;;;;;17.93;12.20;;;12.60;71.20;;;;;;20437932;29;20241;-70
2022/03/30 03:22:11;;;;;;;22.30;11.57;;;12.60;70.90;;;;;;20438022;29;20208;-71
2022/03/30 03:32:13;;;;;;;18.40;12.07;;;12.70;70.90;;;;;;20441252;29;20244;-70
2022/03/30 03:42:16;;;;;;;17.67;11.20;;;12.50;70.80;;;;;;20438724;29;20209;-69
2022/03/30 03:52:18;;;;;;;18.33;12.10;;;12.50;70.60;;;;;;20435185;29;20338;-70
2022/03/30 04:02:20;;;;;;;17.73;12.30;;;12.50;70.80;;;;;;20433976;29;20678;-70
2022/03/30 04:12:22;;;;;;;20.90;11.43;;;12.30;71.50;;;;;;20434022;29;20309;-69
2022/03/30 04:22:23;;;;;;;20.73;10.77;;;12.30;71.50;;;;;;20429770;29;20210;-70
2022/03/30 04:32:26;;;;;;;19.83;11.47;;;12.40;72.20;;;;;;20429558;29;20288;-71
2022/03/30 04:42:27;;;;;;;14.53;10.00;;;12.50;72.50;;;;;;20431418;29;20589;-72
2022/03/30 04:52:32;;;;;;;28.73;11.03;;;12.30;72.60;;;;;;20429807;29;20278;-71
2022/03/30 05:02:34;;;;;;;15.83;10.67;;;12.10;72.10;;;;;;20430042;29;20669;-73
2022/03/30 05:12:35;;;;;;;16.47;10.53;;;12.00;72.80;;;;;;20428908;29;20262;-71
2022/03/30 05:22:40;;;;;;;17.23;10.60;;;11.90;74.70;;;;;;20431269;29;20671;-72
2022/03/30 05:32:45;;;;;;;19.10;10.80;;;11.60;75.50;;;;;;20432863;29;20323;-71
2022/03/30 05:42:47;;;;;;;18.60;12.10;;;11.50;76.90;;;;;;20428969;29;20300;-71
2022/03/30 05:52:51;;;;;;;18.77;12.43;;;11.40;78.20;;;;;;20427051;29;20254;-71
2022/03/30 06:02:53;;;;;;;17.37;11.37;;;11.50;79.80;;;;;;20411449;29;20300;-71
2022/03/30 06:12:56;;;;;;;17.90;11.43;;;11.50;80.70;;;;;;20427061;29;20241;-71
2022/03/30 06:22:57;;;;;;;20.67;12.43;;;11.50;80.70;;;;;;20430138;29;20213;-71
2022/03/30 06:33:00;;;;;;;21.00;13.10;;;11.50;80.70;;;;;;20422815;29;20255;-70
2022/03/30 06:43:01;;;;;;;21.63;13.00;;;11.40;80.50;;;;;;20440476;29;20219;-70
2022/03/30 06:53:05;;;;;;;22.07;13.40;;;11.40;80.50;;;;;;20439431;29;20236;-71
2022/03/30 07:03:07;;;;;;;26.10;14.10;;;11.20;81.00;;;;;;20421499;29;20562;-71
2022/03/30 07:13:10;;;;;;;25.70;14.00;;;11.20;82.10;;;;;;20439030;29;20701;-71
2022/03/30 07:23:14;;;;;;;25.50;13.90;;;11.30;82.70;;;;;;20438026;29;20286;-70
2022/03/30 07:33:16;;;;;;;27.03;14.83;;;11.40;83.40;;;;;;20434757;29;20255;-70
2022/03/30 07:43:18;;;;;;;29.67;16.33;;;11.30;83.30;;;;;;20435256;29;20656;-71
2022/03/30 07:53:21;;;;;;;40.47;22.03;;;11.40;83.90;;;;;;20418653;29;20239;-72
2022/03/30 08:03:23;;;;;;;44.80;24.50;;;11.20;83.90;;;;;;20433520;29;20216;-72
2022/03/30 08:13:24;;;;;;;48.60;25.87;;;11.30;84.20;;;;;;20432441;29;20235;-71
2022/03/30 08:23:26;;;;;;;42.03;23.83;;;11.30;84.80;;;;;;20430135;29;20589;-72
2022/03/30 08:33:28;;;;;;;47.00;25.50;;;11.40;85.20;;;;;;20428248;29;20251;-70
2022/03/30 08:43:30;;;;;;;43.70;21.03;;;11.50;85.60;;;;;;20429814;29;20687;-71
2022/03/30 08:53:32;;;;;;;42.10;21.57;;;11.50;85.60;;;;;;20430013;29;20320;-70
2022/03/30 09:03:34;;;;;;;46.87;24.87;;;11.00;86.40;;;;;;20429169;29;20576;-71
2022/03/30 09:13:36;;;;;;;49.30;25.87;;;11.10;87.50;;;;;;20428034;29;20275;-70
2022/03/30 09:23:46;;;;;;;54.40;31.13;;;11.10;88.70;;;;;;20418289;29;20327;-71
2022/03/30 09:33:48;;;;;;;55.50;31.03;;;11.10;88.00;;;;;;20431780;29;20291;-70
2022/03/30 09:44:03;;;;;;;50.17;29.80;;;11.10;87.60;;;;;;20427970;29;20213;-71
2022/03/30 09:54:07;;;;;;;55.20;29.13;;;11.10;86.30;;;;;;20428898;29;20326;-71
2022/03/30 10:04:10;;;;;;;54.73;30.87;;;11.00;86.60;;;;;;20442771;29;20227;-71
2022/03/30 10:14:12;;;;;;;57.93;31.40;;;11.00;86.60;;;;;;20442648;29;20246;-69
2022/03/30 10:24:34;;;;;;;65.90;31.57;;;11.00;86.80;;;;;;20422672;29;20208;-71
2022/03/30 10:35:05;;;;;;;55.93;31.63;;;11.00;87.20;;;;;;20437414;29;20268;-71
2022/03/30 10:45:30;;;;;;;49.67;29.80;;;11.10;88.00;;;;;;20438764;29;20208;-71
2022/03/30 10:55:33;;;;;;;51.83;31.03;;;11.20;88.10;;;;;;20422845;29;20259;-72
2022/03/30 11:05:37;;;;;;;55.63;31.10;;;11.20;88.30;;;;;;20437107;29;20218;-70
2022/03/30 11:15:58;;;;;;;48.97;29.37;;;11.30;89.20;;;;;;20435625;29;20243;-71
2022/03/30 11:26:00;;;;;;;48.17;28.53;;;11.30;89.20;;;;;;20435650;29;20303;-71
2022/03/30 11:36:09;;;;;;;48.33;28.03;;;11.40;88.80;;;;;;20418001;29;20272;-71
2022/03/30 11:46:13;;;;;;;45.33;27.00;;;11.50;89.50;;;;;;20434037;29;20302;-72
2022/03/30 11:56:15;;;;;;;51.13;27.47;;;11.40;89.10;;;;;;20434655;29;20236;-70
2022/03/30 12:06:19;;;;;;;39.07;24.87;;;11.40;89.10;;;;;;20431718;29;20219;-70
2022/03/30 12:16:22;;;;;;;42.03;24.10;;;11.50;89.10;;;;;;20415075;29;20598;-72
2022/03/30 12:26:25;;;;;;;33.20;22.87;;;11.60;88.20;;;;;;20463496;28;20282;-72
2022/03/30 12:36:27;;;;;;;38.87;22.27;;;11.60;89.10;;;;;;20451926;28;20254;-69
2022/03/30 12:46:31;;;;;;;34.40;21.30;;;11.80;89.10;;;;;;20428900;29;20225;-71
2022/03/30 12:56:33;;;;;;;30.20;19.70;;;11.80;89.10;;;;;;20428519;29;20268;-71
2022/03/30 13:06:36;;;;;;;30.23;19.67;;;11.80;89.20;;;;;;20427490;29;20204;-70
2022/03/30 13:16:38;;;;;;;32.40;20.10;;;11.80;89.40;;;;;;20410053;29;20243;-68
2022/03/30 13:26:42;;;;;;;34.33;21.00;;;11.80;89.70;;;;;;20426435;29;20657;-66
2022/03/30 13:36:44;;;;;;;31.50;21.17;;;11.80;90.10;;;;;;20425383;29;20709;-71
2022/03/30 13:46:46;;;;;;;31.87;20.27;;;11.80;89.90;;;;;;20409039;29;20215;-67
2022/03/30 13:56:48;;;;;;;30.60;19.70;;;11.90;90.40;;;;;;20449594;28;20240;-71
2022/03/30 14:06:51;;;;;;;32.03;20.20;;;11.80;90.40;;;;;;20440010;28;20223;-75
2022/03/30 14:16:53;;;;;;;33.53;20.03;;;11.80;90.60;;;;;;20492259;28;20322;-75
2022/03/30 14:26:55;;;;;;;31.07;19.37;;;11.80;90.60;;;;;;20503017;28;20235;-71
2022/03/30 14:36:57;;;;;;;26.30;17.10;;;12.10;90.10;;;;;;20486346;28;20242;-70
2022/03/30 14:46:59;;;;;;;22.10;14.83;;;12.20;90.30;;;;;;20495460;28;20572;-70
2022/03/30 14:57:00;;;;;;;19.63;13.73;;;12.40;90.00;;;;;;20438809;29;20646;-70
2022/03/30 15:07:04;;;;;;;17.83;13.10;;;12.90;89.60;;;;;;20438844;29;20216;-73
2022/03/30 15:17:06;;;;;;;16.47;11.90;;;13.20;86.80;;;;;;20435883;29;20244;-66
2022/03/30 15:27:13;;;;;;;18.37;12.73;;;13.20;84.80;;;;;;20430983;29;20275;-66
2022/03/30 15:37:14;;;;;;;14.80;10.93;;;13.20;85.20;;;;;;20452255;28;20710;-66
2022/03/30 15:47:16;;;;;;;14.23;10.03;;;13.00;83.10;;;;;;20458362;29;20202;-65
2022/03/30 15:57:18;;;;;;;14.00;10.73;;;13.00;82.90;;;;;;20513732;28;20406;-65
2022/03/30 16:07:21;;;;;;;14.60;10.70;;;12.80;81.80;;;;;;20513146;28;20246;-66
2022/03/30 16:17:24;;;;;;;13.03;9.60;;;12.50;81.60;;;;;;20527003;28;20258;-68
2022/03/30 16:27:25;;;;;;;9.50;7.93;;;12.50;82.00;;;;;;20459110;28;20237;-70
2022/03/30 16:37:31;;;;;;;6.57;5.53;;;12.30;81.10;;;;;;20431585;29;20575;-67
2022/03/30 16:47:33;;;;;;;6.33;5.27;;;12.30;81.00;;;;;;20431484;29;20216;-70
2022/03/30 16:57:35;;;;;;;7.77;6.63;;;12.30;81.50;;;;;;20429763;29;20321;-64
2022/03/30 17:07:37;;;;;;;6.93;6.00;;;12.20;80.80;;;;;;20428972;29;20216;-64
2022/03/30 17:17:39;;;;;;;7.63;6.33;;;12.30;81.00;;;;;;20428999;29;20324;-65
2022/03/30 17:27:41;;;;;;;9.97;7.13;;;12.20;81.20;;;;;;20482343;28;20236;-65
2022/03/30 17:37:42;;;;;;;11.70;7.80;;;12.10;80.90;;;;;;20507233;28;20246;-70
2022/03/30 17:47:45;;;;;;;8.60;7.07;;;11.90;80.30;;;;;;20506556;28;20211;-64
2022/03/30 17:57:47;;;;;;;8.37;7.17;;;11.80;80.20;;;;;;20503974;28;20609;-65
2022/03/30 18:16:09;;;;;;;7.60;6.57;;;11.50;79.90;;;;;;20982930;28;20561;-65
2022/03/30 18:26:10;;;;;;;9.83;7.00;;;11.40;79.60;;;;;;20982234;28;20210;-64
2022/03/30 18:36:12;;;;;;;7.83;6.90;;;11.30;79.40;;;;;;20982096;28;20213;-65
2022/03/30 18:46:15;;;;;;;9.73;7.37;;;11.10;79.40;;;;;;20980168;28;20289;-68
2022/03/30 18:56:17;;;;;;;9.40;7.97;;;11.20;79.30;;;;;;20979086;28;20211;-67
2022/03/30 19:06:20;;;;;;;10.50;8.17;;;11.00;78.20;;;;;;20979581;28;20571;-66
2022/03/30 19:16:22;;;;;;;10.67;8.20;;;11.00;77.60;;;;;;20978240;28;20211;-65
2022/03/30 19:26:24;;;;;;;10.17;7.63;;;10.80;76.20;;;;;;20929276;28;20605;-65
2022/03/30 19:36:26;;;;;;;13.57;9.63;;;10.70;75.90;;;;;;20922536;28;20208;-66
2022/03/30 19:46:28;;;;;;;13.33;10.03;;;10.50;75.30;;;;;;20920021;28;20279;-64
2022/03/30 19:56:31;;;;;;;13.90;9.43;;;10.50;75.80;;;;;;20921161;28;20218;-65
2022/03/30 20:06:34;;;;;;;15.53;10.03;;;10.30;74.90;;;;;;20920234;28;20239;-66
2022/03/30 20:16:38;;;;;;;16.07;10.07;;;10.30;75.10;;;;;;20919530;28;20236;-64
2022/03/30 20:26:40;;;;;;;13.33;9.23;;;10.20;75.80;;;;;;20919555;28;20235;-66
2022/03/30 20:36:41;;;;;;;13.73;10.27;;;10.20;75.80;;;;;;20917594;28;20238;-65
2022/03/30 20:46:43;;;;;;;13.97;10.43;;;10.10;75.80;;;;;;20917135;28;20323;-65
2022/03/30 21:07:18;;;;;;;13.87;9.83;;;9.80;77.60;;;;;;21067532;28;20559;-65
2022/03/30 21:17:20;;;;;;;12.17;9.23;;;9.80;77.60;;;;;;21067696;28;20209;-66
2022/03/30 21:27:23;;;;;;;14.37;10.23;;;9.60;77.80;;;;;;21066627;28;20741;-64
2022/03/30 21:37:25;;;;;;;14.07;10.13;;;9.70;77.90;;;;;;21065057;28;20663;-64
2022/03/30 21:47:26;;;;;;;13.27;9.63;;;9.40;78.30;;;;;;21064656;28;20232;-64
2022/03/30 21:57:43;;;;;;;15.10;10.53;;;9.50;78.50;;;;;;20984585;28;20562;-65
2022/03/30 22:07:44;;;;;;;15.80;10.40;;;9.60;78.50;;;;;;20983238;28;20301;-65
2022/03/30 22:17:46;;;;;;;13.33;10.23;;;9.60;78.30;;;;;;20952320;28;20215;-64
2022/03/30 22:27:49;;;;;;;12.90;9.90;;;9.60;78.90;;;;;;20895022;28;20211;-66
2022/03/30 22:37:51;;;;;;;12.10;9.57;;;9.50;77.80;;;;;;20898343;28;20217;-65
2022/03/30 22:47:55;;;;;;;13.07;9.17;;;9.50;78.20;;;;;;20896915;28;20585;-65
2022/03/30 22:57:58;;;;;;;12.40;8.93;;;9.50;77.60;;;;;;20896584;28;20204;-65
2022/03/30 23:08:12;;;;;;;11.40;8.40;;;9.50;77.70;;;;;;20845841;28;20222;-65
2022/03/30 23:18:15;;;;;;;10.97;8.13;;;9.50;77.30;;;;;;20840019;28;20211;-65
2022/03/30 23:28:17;;;;;;;10.10;8.07;;;9.40;77.60;;;;;;20839166;28;20230;-64
2022/03/30 23:38:20;;;;;;;10.63;8.17;;;9.50;76.50;;;;;;20838699;28;20213;-65
2022/03/30 23:48:23;;;;;;;11.63;8.87;;;9.40;76.90;;;;;;20837488;28;20602;-65
2022/03/30 23:58:27;;;;;;;13.23;8.97;;;9.50;76.50;;;;;;20837169;28;20571;-65
